Time;durP1;ratioP1;P1;durP2;ratioP2;P2;SDS_P1;SDS_P2;PMS_P1;PMS_P2;Temp;Humidity;BMP_temperature;BMP_pressure;BME280_temperature;BME280_humidity;BME280_pressure;Samples;Min_cycle;Max_cycle;Signal;HPM_P1;HPM_P2
2022/07/16 00:02:00;;;;;;;5.35;2.53;;;;;;;;;;5086547;28;20132;-75
2022/07/16 00:04:26;;;;;;;8.23;2.10;;;;;;;;;;5069223;28;20114;-75
2022/07/16 00:06:52;;;;;;;7.85;2.50;;;;;;;;;;5087187;28;20238;-75
2022/07/16 00:09:18;;;;;;;8.32;2.97;;;;;;;;;;5087022;28;20043;-75
2022/07/16 00:11:44;;;;;;;7.45;2.50;;;;;;;;;;5084851;28;20482;-75
2022/07/16 00:14:11;;;;;;;6.78;2.25;;;;;;;;;;5087069;28;20043;-75
2022/07/16 00:16:37;;;;;;;6.57;2.78;;;;;;;;;;5086138;28;20036;-74
2022/07/16 00:19:19;;;;;;;10.02;3.10;;;;;;;;;;5086388;28;20040;-75
2022/07/16 00:21:47;;;;;;;4.75;2.08;;;;;;;;;;5068724;28;20481;-75
2022/07/16 00:24:13;;;;;;;4.78;2.30;;;;;;;;;;5086214;28;20036;-75
2022/07/16 00:26:39;;;;;;;6.10;2.08;;;;;;;;;;5086942;28;20167;-75
2022/07/16 00:29:05;;;;;;;4.78;1.85;;;;;;;;;;5086022;28;20542;-75
2022/07/16 00:31:31;;;;;;;3.97;2.05;;;;;;;;;;5086855;28;20036;-75
2022/07/16 00:33:57;;;;;;;6.03;2.60;;;;;;;;;;5085722;28;20036;-75
2022/07/16 00:36:23;;;;;;;5.60;2.00;;;;;;;;;;5087308;28;20089;-75
2022/07/16 00:38:49;;;;;;;4.47;2.40;;;;;;;;;;5059725;28;20398;-75
2022/07/16 00:41:18;;;;;;;5.65;2.08;;;;;;;;;;5086783;28;20459;-75
2022/07/16 00:43:49;;;;;;;6.95;2.15;;;;;;;;;;5068124;28;20048;-75
2022/07/16 00:46:16;;;;;;;6.63;2.38;;;;;;;;;;5086996;28;20512;-75
2022/07/16 00:48:42;;;;;;;4.10;2.00;;;;;;;;;;5085883;28;20036;-75
2022/07/16 00:51:08;;;;;;;7.88;2.85;;;;;;;;;;5087097;28;20027;-74
2022/07/16 00:53:35;;;;;;;7.47;2.08;;;;;;;;;;5085644;28;20032;-75
2022/07/16 00:56:01;;;;;;;4.65;2.00;;;;;;;;;;5086596;28;20066;-75
2022/07/16 00:58:27;;;;;;;3.63;1.95;;;;;;;;;;5085168;28;20040;-75
2022/07/16 01:00:54;;;;;;;4.05;2.25;;;;;;;;;;5085785;28;20421;-75
2022/07/16 01:03:20;;;;;;;6.80;2.25;;;;;;;;;;5085798;28;20039;-75
2022/07/16 01:05:46;;;;;;;5.65;2.50;;;;;;;;;;5085846;28;20028;-74
2022/07/16 01:08:12;;;;;;;6.30;3.30;;;;;;;;;;5084520;28;20059;-75
2022/07/16 01:10:40;;;;;;;10.65;3.92;;;;;;;;;;5086241;28;20024;-74
2022/07/16 01:13:08;;;;;;;7.32;3.67;;;;;;;;;;5085697;28;20073;-75
2022/07/16 01:15:34;;;;;;;6.45;3.10;;;;;;;;;;5063084;28;20035;-75
2022/07/16 01:18:00;;;;;;;8.15;3.35;;;;;;;;;;5085967;28;20028;-74
2022/07/16 01:20:26;;;;;;;6.28;2.80;;;;;;;;;;5085320;28;20060;-75
2022/07/16 01:22:55;;;;;;;7.90;3.17;;;;;;;;;;5086089;28;20422;-75
2022/07/16 01:25:21;;;;;;;5.65;2.88;;;;;;;;;;5085382;28;20028;-74
2022/07/16 01:27:47;;;;;;;5.70;2.45;;;;;;;;;;5086550;28;20798;-74
2022/07/16 01:30:13;;;;;;;7.28;2.78;;;;;;;;;;5084719;28;20064;-74
2022/07/16 01:32:39;;;;;;;5.68;2.75;;;;;;;;;;5085473;28;20113;-75
2022/07/16 01:35:06;;;;;;;5.75;2.58;;;;;;;;;;5085257;28;20067;-75
2022/07/16 01:37:32;;;;;;;5.93;2.55;;;;;;;;;;5086376;28;20046;-75
2022/07/16 01:39:58;;;;;;;5.93;2.80;;;;;;;;;;5085334;28;20028;-75
2022/07/16 01:42:24;;;;;;;8.10;2.55;;;;;;;;;;5086606;28;20537;-75
2022/07/16 01:44:51;;;;;;;7.32;2.63;;;;;;;;;;5081753;28;20395;-75
2022/07/16 01:47:17;;;;;;;5.80;2.70;;;;;;;;;;5056183;28;20187;-74
2022/07/16 01:49:42;;;;;;;5.38;2.22;;;;;;;;;;5085508;28;20770;-75
2022/07/16 01:52:13;;;;;;;4.43;2.28;;;;;;;;;;5086561;28;20028;-75
2022/07/16 01:54:43;;;;;;;6.32;2.63;;;;;;;;;;5085445;28;20111;-75
2022/07/16 01:57:09;;;;;;;5.25;2.50;;;;;;;;;;5069044;28;20040;-74
2022/07/16 01:59:36;;;;;;;6.57;2.25;;;;;;;;;;5089810;28;20060;-75
2022/07/16 02:02:02;;;;;;;5.95;2.55;;;;;;;;;;5088871;28;20609;-75
2022/07/16 02:04:28;;;;;;;4.90;2.50;;;;;;;;;;5087232;28;20020;-75
2022/07/16 02:06:54;;;;;;;4.97;2.28;;;;;;;;;;5089958;28;20537;-75
2022/07/16 02:09:20;;;;;;;8.82;2.40;;;;;;;;;;5089347;28;20055;-75
2022/07/16 02:11:46;;;;;;;5.88;2.42;;;;;;;;;;5089392;28;20032;-75
2022/07/16 02:14:12;;;;;;;5.97;2.38;;;;;;;;;;5085131;28;20115;-74
2022/07/16 02:16:38;;;;;;;4.18;2.40;;;;;;;;;;5061682;28;20066;-75
2022/07/16 02:19:04;;;;;;;6.63;2.70;;;;;;;;;;5089366;28;20060;-75
2022/07/16 02:21:31;;;;;;;8.10;3.00;;;;;;;;;;5061565;28;20135;-74
2022/07/16 02:23:57;;;;;;;10.10;2.75;;;;;;;;;;5059727;28;20029;-75
2022/07/16 02:26:23;;;;;;;7.22;3.03;;;;;;;;;;5081555;28;20040;-75
2022/07/16 02:28:49;;;;;;;6.07;3.00;;;;;;;;;;5087996;28;20048;-75
2022/07/16 02:31:15;;;;;;;6.18;2.85;;;;;;;;;;5088452;28;20124;-74
2022/07/16 02:33:41;;;;;;;5.40;2.88;;;;;;;;;;5089203;28;20112;-74
2022/07/16 02:36:08;;;;;;;10.18;3.45;;;;;;;;;;5085267;28;20241;-74
2022/07/16 02:38:34;;;;;;;6.45;2.80;;;;;;;;;;5089413;28;20040;-74
2022/07/16 02:41:00;;;;;;;9.88;3.08;;;;;;;;;;5070469;28;20143;-74
2022/07/16 02:43:26;;;;;;;6.35;3.03;;;;;;;;;;5089046;28;20031;-74
2022/07/16 02:45:52;;;;;;;5.45;2.70;;;;;;;;;;5070065;28;20028;-74
2022/07/16 02:48:18;;;;;;;5.38;2.60;;;;;;;;;;5088920;28;20044;-74
2022/07/16 02:50:44;;;;;;;7.03;2.47;;;;;;;;;;5088428;28;20541;-74
2022/07/16 02:53:10;;;;;;;5.18;2.67;;;;;;;;;;5088695;28;20064;-74
2022/07/16 02:55:36;;;;;;;6.35;3.08;;;;;;;;;;5069401;28;20675;-74
2022/07/16 02:58:02;;;;;;;6.57;2.95;;;;;;;;;;5088985;28;20032;-74
2022/07/16 03:00:28;;;;;;;10.45;2.83;;;;;;;;;;5087244;28;20032;-74
2022/07/16 03:02:55;;;;;;;5.40;3.20;;;;;;;;;;5088434;28;20062;-74
2022/07/16 03:05:21;;;;;;;6.75;2.80;;;;;;;;;;5086217;28;20111;-77
2022/07/16 03:07:47;;;;;;;5.95;2.97;;;;;;;;;;5088726;28;20846;-74
2022/07/16 03:10:14;;;;;;;4.50;2.22;;;;;;;;;;5087017;28;20032;-74
2022/07/16 03:12:40;;;;;;;10.80;3.70;;;;;;;;;;5088898;28;20468;-74
2022/07/16 03:15:07;;;;;;;7.57;3.33;;;;;;;;;;5069651;28;20069;-74
2022/07/16 03:17:33;;;;;;;8.05;4.05;;;;;;;;;;5087941;28;20039;-74
2022/07/16 03:19:59;;;;;;;5.22;2.80;;;;;;;;;;5088130;28;20115;-74
2022/07/16 03:22:25;;;;;;;8.02;3.10;;;;;;;;;;5087217;28;20107;-74
2022/07/16 03:24:51;;;;;;;5.82;2.75;;;;;;;;;;5088393;28;20032;-74
2022/07/16 03:27:17;;;;;;;4.82;2.88;;;;;;;;;;5083743;28;20413;-75
2022/07/16 03:29:43;;;;;;;9.25;3.42;;;;;;;;;;5087929;28;20060;-74
2022/07/16 03:32:09;;;;;;;6.13;3.08;;;;;;;;;;5087277;28;20077;-74
2022/07/16 03:34:35;;;;;;;6.80;3.53;;;;;;;;;;5088514;28;20111;-75
2022/07/16 03:37:01;;;;;;;7.20;3.10;;;;;;;;;;5069348;28;20522;-74
2022/07/16 03:39:28;;;;;;;6.05;3.20;;;;;;;;;;5088361;28;20036;-75
2022/07/16 03:41:54;;;;;;;6.03;2.92;;;;;;;;;;5087934;28;20032;-74
2022/07/16 03:44:20;;;;;;;6.65;2.83;;;;;;;;;;5087631;28;20024;-75
2022/07/16 03:46:46;;;;;;;6.53;3.20;;;;;;;;;;5087052;28;20165;-75
2022/07/16 03:49:12;;;;;;;8.13;3.47;;;;;;;;;;5088073;28;20714;-75
2022/07/16 03:51:38;;;;;;;7.35;2.92;;;;;;;;;;5087260;28;20036;-74
2022/07/16 03:54:04;;;;;;;8.38;3.10;;;;;;;;;;5088272;28;20081;-75
2022/07/16 03:56:31;;;;;;;14.98;3.60;;;;;;;;;;5086810;28;20040;-75
2022/07/16 03:58:57;;;;;;;8.57;3.33;;;;;;;;;;5087879;28;20027;-74
2022/07/16 04:01:23;;;;;;;7.13;3.50;;;;;;;;;;5085882;28;20044;-75
2022/07/16 04:03:49;;;;;;;5.72;2.70;;;;;;;;;;5088021;28;20032;-74
2022/07/16 04:06:15;;;;;;;8.13;3.40;;;;;;;;;;5086336;28;20032;-74
2022/07/16 04:08:41;;;;;;;6.38;3.08;;;;;;;;;;5087721;28;20064;-74
2022/07/16 04:11:08;;;;;;;8.10;3.17;;;;;;;;;;5086740;28;20706;-74
2022/07/16 04:13:34;;;;;;;7.20;3.30;;;;;;;;;;5086834;28;20032;-74
2022/07/16 04:16:00;;;;;;;8.38;3.65;;;;;;;;;;5086798;28;20043;-74
2022/07/16 04:18:26;;;;;;;8.65;3.67;;;;;;;;;;5086434;28;20036;-74
2022/07/16 04:20:52;;;;;;;7.90;3.65;;;;;;;;;;5087168;28;20027;-74
2022/07/16 04:23:19;;;;;;;8.40;3.97;;;;;;;;;;5063626;28;20039;-74
2022/07/16 04:25:45;;;;;;;7.28;3.17;;;;;;;;;;5069243;28;20036;-74
2022/07/16 04:28:11;;;;;;;6.57;3.28;;;;;;;;;;5063839;28;20588;-75
2022/07/16 04:30:37;;;;;;;10.88;3.78;;;;;;;;;;5087358;28;20030;-74
2022/07/16 04:33:03;;;;;;;11.60;4.10;;;;;;;;;;5086381;28;20051;-74
2022/07/16 04:35:29;;;;;;;9.30;3.67;;;;;;;;;;5087583;28;20720;-74
2022/07/16 04:37:55;;;;;;;7.55;3.40;;;;;;;;;;5081740;28;20032;-75
2022/07/16 04:40:21;;;;;;;8.45;3.50;;;;;;;;;;5087086;28;20032;-74
2022/07/16 04:42:47;;;;;;;9.57;3.33;;;;;;;;;;5067681;28;20036;-74
2022/07/16 04:45:13;;;;;;;7.63;2.88;;;;;;;;;;5086803;28;20063;-74
2022/07/16 04:47:40;;;;;;;7.70;3.22;;;;;;;;;;5085829;28;20036;-74
2022/07/16 04:50:06;;;;;;;6.13;3.08;;;;;;;;;;5087057;28;20028;-75
2022/07/16 04:52:32;;;;;;;5.78;2.97;;;;;;;;;;5085909;28;20034;-74
2022/07/16 04:54:59;;;;;;;6.68;2.95;;;;;;;;;;5085796;28;20119;-74
2022/07/16 04:57:25;;;;;;;9.40;3.15;;;;;;;;;;5068046;28;20390;-74
2022/07/16 04:59:54;;;;;;;9.05;3.20;;;;;;;;;;5085709;28;20039;-77
2022/07/16 05:05:05;;;;;;;8.45;3.67;;;;;;;;;;5085939;28;20059;-74
2022/07/16 05:07:31;;;;;;;6.97;3.10;;;;;;;;;;5084695;28;20035;-74
2022/07/16 05:09:57;;;;;;;6.65;3.30;;;;;;;;;;5059274;28;20039;-74
2022/07/16 05:12:23;;;;;;;7.85;3.30;;;;;;;;;;5085509;28;20042;-74
2022/07/16 05:14:49;;;;;;;8.18;3.15;;;;;;;;;;5059765;28;20036;-75
2022/07/16 05:17:15;;;;;;;9.45;3.78;;;;;;;;;;5085547;28;20714;-75
2022/07/16 05:19:42;;;;;;;6.65;3.17;;;;;;;;;;5060124;28;20032;-74
2022/07/16 05:22:08;;;;;;;11.25;3.65;;;;;;;;;;5085523;28;20028;-74
2022/07/16 05:24:34;;;;;;;9.43;3.80;;;;;;;;;;5086479;28;20033;-75
2022/07/16 05:27:00;;;;;;;7.85;3.53;;;;;;;;;;5085708;28;20025;-74
2022/07/16 05:29:26;;;;;;;7.88;3.55;;;;;;;;;;5083957;28;20059;-74
2022/07/16 05:31:52;;;;;;;12.52;3.97;;;;;;;;;;5086112;28;20032;-75
2022/07/16 05:34:18;;;;;;;8.43;3.80;;;;;;;;;;5088873;28;20051;-75
2022/07/16 05:36:44;;;;;;;8.02;3.97;;;;;;;;;;5064530;28;20068;-74
2022/07/16 05:39:10;;;;;;;9.60;3.92;;;;;;;;;;5089241;28;20079;-75
2022/07/16 05:41:36;;;;;;;8.25;3.30;;;;;;;;;;5090016;28;20754;-75
2022/07/16 05:44:02;;;;;;;8.75;3.53;;;;;;;;;;5088860;28;20115;-74
2022/07/16 05:46:29;;;;;;;7.82;3.65;;;;;;;;;;5090127;28;20443;-75
2022/07/16 05:48:55;;;;;;;5.95;3.20;;;;;;;;;;5089112;28;20036;-75
2022/07/16 05:51:21;;;;;;;7.97;3.50;;;;;;;;;;5090095;28;20099;-75
2022/07/16 05:53:47;;;;;;;9.70;3.30;;;;;;;;;;5088946;28;20040;-75
2022/07/16 05:56:13;;;;;;;6.30;3.38;;;;;;;;;;5090392;28;20110;-74
2022/07/16 05:58:39;;;;;;;5.78;2.85;;;;;;;;;;5086166;28;20039;-74
2022/07/16 06:01:05;;;;;;;7.47;3.20;;;;;;;;;;5088807;28;20034;-75
2022/07/16 06:03:31;;;;;;;7.05;2.65;;;;;;;;;;5088401;28;20419;-74
2022/07/16 06:05:57;;;;;;;8.73;4.03;;;;;;;;;;5088416;28;20028;-75
2022/07/16 06:08:23;;;;;;;8.95;3.28;;;;;;;;;;5072838;28;20051;-75
2022/07/16 06:10:49;;;;;;;6.60;3.67;;;;;;;;;;5087187;28;20027;-75
2022/07/16 06:13:15;;;;;;;6.15;3.25;;;;;;;;;;5068478;28;20510;-75
2022/07/16 06:15:41;;;;;;;6.78;3.15;;;;;;;;;;5089736;28;20035;-75
2022/07/16 06:18:07;;;;;;;7.63;2.75;;;;;;;;;;5089774;28;20040;-75
2022/07/16 06:20:33;;;;;;;6.95;3.40;;;;;;;;;;5092735;28;20035;-75
2022/07/16 06:22:59;;;;;;;5.95;3.30;;;;;;;;;;5084617;28;20593;-74
2022/07/16 06:25:26;;;;;;;7.40;3.28;;;;;;;;;;5087952;28;20039;-75
2022/07/16 06:27:53;;;;;;;8.60;3.50;;;;;;;;;;5088093;28;20056;-74
2022/07/16 06:30:19;;;;;;;5.25;3.05;;;;;;;;;;5068806;28;20093;-75
2022/07/16 06:32:45;;;;;;;6.38;3.50;;;;;;;;;;5090017;28;20047;-74
2022/07/16 06:35:11;;;;;;;8.93;3.45;;;;;;;;;;5085777;28;20425;-75
2022/07/16 06:37:38;;;;;;;8.85;3.20;;;;;;;;;;5089845;28;20040;-75
2022/07/16 06:40:04;;;;;;;7.40;3.60;;;;;;;;;;5085673;28;20042;-75
2022/07/16 06:42:30;;;;;;;7.85;2.95;;;;;;;;;;5085864;28;20109;-75
2022/07/16 06:44:56;;;;;;;6.53;3.30;;;;;;;;;;5091938;28;20052;-74
2022/07/16 06:47:22;;;;;;;5.20;3.03;;;;;;;;;;5090170;28;20082;-74
2022/07/16 06:49:48;;;;;;;8.63;3.47;;;;;;;;;;5069469;28;20773;-75
2022/07/16 06:52:14;;;;;;;7.85;3.38;;;;;;;;;;5071523;28;20112;-75
2022/07/16 06:54:40;;;;;;;9.10;3.17;;;;;;;;;;5090841;28;20131;-74
2022/07/16 06:57:06;;;;;;;10.48;3.05;;;;;;;;;;5094390;28;20146;-75
2022/07/16 06:59:32;;;;;;;5.10;2.80;;;;;;;;;;5088220;28;20043;-75
2022/07/16 07:01:58;;;;;;;6.78;2.88;;;;;;;;;;5088800;28;20036;-75
2022/07/16 07:04:24;;;;;;;10.02;3.20;;;;;;;;;;5091242;28;20836;-67
2022/07/16 07:06:50;;;;;;;8.38;3.05;;;;;;;;;;5087742;28;20028;-67
2022/07/16 07:09:16;;;;;;;8.52;3.38;;;;;;;;;;5087682;28;20641;-68
2022/07/16 07:11:42;;;;;;;8.13;3.65;;;;;;;;;;5087073;28;20035;-67
2022/07/16 07:14:09;;;;;;;6.35;3.00;;;;;;;;;;5092028;28;20584;-68
2022/07/16 07:16:35;;;;;;;7.70;3.22;;;;;;;;;;5089517;28;20034;-67
2022/07/16 07:19:01;;;;;;;4.35;2.63;;;;;;;;;;5087820;28;20043;-67
2022/07/16 07:21:27;;;;;;;12.02;3.15;;;;;;;;;;5092555;28;20043;-68
2022/07/16 07:23:53;;;;;;;9.45;2.97;;;;;;;;;;5087236;28;20107;-68
2022/07/16 07:26:19;;;;;;;4.15;2.65;;;;;;;;;;5085762;28;20633;-68
2022/07/16 07:28:45;;;;;;;6.40;2.90;;;;;;;;;;5089439;28;20089;-67
2022/07/16 07:31:11;;;;;;;6.07;2.80;;;;;;;;;;5075365;28;20476;-68
2022/07/16 07:33:38;;;;;;;8.35;2.95;;;;;;;;;;5088186;28;20443;-68
2022/07/16 07:36:04;;;;;;;7.97;3.22;;;;;;;;;;5086002;28;20482;-68
2022/07/16 07:38:31;;;;;;;4.60;2.63;;;;;;;;;;5086842;28;20032;-67
2022/07/16 07:40:57;;;;;;;7.60;3.00;;;;;;;;;;5087619;28;20024;-68
2022/07/16 07:43:23;;;;;;;6.30;2.63;;;;;;;;;;5088328;28;20476;-68
2022/07/16 07:45:49;;;;;;;8.82;3.10;;;;;;;;;;5086152;28;20028;-67
2022/07/16 07:48:16;;;;;;;6.65;2.80;;;;;;;;;;5089010;28;20536;-68
2022/07/16 07:50:42;;;;;;;6.35;2.88;;;;;;;;;;5090342;28;20114;-68
2022/07/16 07:53:08;;;;;;;9.93;2.97;;;;;;;;;;5087938;28;20035;-68
2022/07/16 07:55:34;;;;;;;14.07;3.38;;;;;;;;;;5090986;28;20115;-70
2022/07/16 07:58:00;;;;;;;4.50;2.25;;;;;;;;;;5094502;28;20023;-68
2022/07/16 08:00:26;;;;;;;9.07;3.08;;;;;;;;;;5090416;28;20105;-68
2022/07/16 08:02:53;;;;;;;7.60;2.88;;;;;;;;;;5093938;28;20036;-68
2022/07/16 08:05:20;;;;;;;8.63;3.10;;;;;;;;;;5083670;28;20028;-68
2022/07/16 08:07:46;;;;;;;6.32;2.72;;;;;;;;;;5081342;28;20042;-68
2022/07/16 08:10:12;;;;;;;6.97;2.90;;;;;;;;;;5087605;28;20063;-67
2022/07/16 08:12:38;;;;;;;4.63;2.53;;;;;;;;;;5086897;28;20044;-67
2022/07/16 08:15:04;;;;;;;8.13;3.10;;;;;;;;;;5086566;28;20123;-68
2022/07/16 08:17:30;;;;;;;10.82;3.63;;;;;;;;;;5085100;28;20036;-68
2022/07/16 08:19:56;;;;;;;6.05;2.67;;;;;;;;;;5091622;28;20039;-68
2022/07/16 08:22:23;;;;;;;7.30;2.72;;;;;;;;;;5087566;28;20054;-68
2022/07/16 08:27:33;;;;;;;8.95;2.92;;;;;;;;;;5089534;28;20115;-68
2022/07/16 08:29:59;;;;;;;7.53;2.90;;;;;;;;;;5085539;28;20039;-67
2022/07/16 08:32:25;;;;;;;6.97;3.00;;;;;;;;;;5087532;28;20032;-68
2022/07/16 08:34:51;;;;;;;8.93;3.00;;;;;;;;;;5085189;28;20039;-68
2022/07/16 08:37:30;;;;;;;8.52;2.55;;;;;;;;;;5083914;28;20028;-68
2022/07/16 08:39:56;;;;;;;6.22;2.97;;;;;;;;;;5080363;28;20123;-68
2022/07/16 08:42:22;;;;;;;7.03;2.72;;;;;;;;;;5080547;28;20027;-68
2022/07/16 08:44:48;;;;;;;7.40;3.10;;;;;;;;;;5082373;28;20111;-69
2022/07/16 08:47:14;;;;;;;7.07;3.22;;;;;;;;;;5078050;28;20033;-69
2022/07/16 08:49:40;;;;;;;6.05;2.60;;;;;;;;;;5083127;28;20039;-69
2022/07/16 08:52:07;;;;;;;8.43;2.70;;;;;;;;;;5086382;28;20028;-69
2022/07/16 08:54:33;;;;;;;5.97;2.53;;;;;;;;;;5085329;28;20063;-69
2022/07/16 08:57:00;;;;;;;6.18;2.50;;;;;;;;;;5083512;28;20028;-69
2022/07/16 08:59:29;;;;;;;11.00;2.50;;;;;;;;;;5085477;28;20043;-69
2022/07/16 09:01:55;;;;;;;5.90;2.20;;;;;;;;;;5090918;28;20028;-69
2022/07/16 09:04:21;;;;;;;8.20;2.65;;;;;;;;;;5086724;28;20447;-69
2022/07/16 09:06:47;;;;;;;5.20;3.00;;;;;;;;;;5086591;28;20751;-69
2022/07/16 09:09:13;;;;;;;5.35;2.65;;;;;;;;;;5088063;28;20459;-69
2022/07/16 09:11:40;;;;;;;7.68;2.42;;;;;;;;;;5088873;28;20620;-68
2022/07/16 09:14:13;;;;;;;5.47;2.35;;;;;;;;;;5083469;28;20131;-68
2022/07/16 09:16:50;;;;;;;5.43;2.38;;;;;;;;;;5084858;28;20077;-69
2022/07/16 09:19:19;;;;;;;5.82;2.67;;;;;;;;;;5083605;28;20119;-69
2022/07/16 09:22:04;;;;;;;4.47;2.30;;;;;;;;;;5082802;28;20024;-68
2022/07/16 09:24:48;;;;;;;8.70;2.40;;;;;;;;;;5087226;28;20143;-68
2022/07/16 09:27:16;;;;;;;5.13;2.35;;;;;;;;;;5086365;28;20024;-68
2022/07/16 09:29:52;;;;;;;8.00;2.90;;;;;;;;;;5084468;28;20562;-69
2022/07/16 09:32:27;;;;;;;5.15;2.30;;;;;;;;;;5087821;28;20032;-68
2022/07/16 09:35:06;;;;;;;6.45;2.30;;;;;;;;;;5082031;28;20040;-69
2022/07/16 09:37:47;;;;;;;6.10;2.30;;;;;;;;;;5083697;28;20039;-69
2022/07/16 09:40:13;;;;;;;10.00;2.63;;;;;;;;;;5084018;28;20458;-69
2022/07/16 09:42:40;;;;;;;5.45;3.03;;;;;;;;;;5083908;28;20155;-69
2022/07/16 09:45:07;;;;;;;6.50;2.15;;;;;;;;;;5084762;28;20024;-69
2022/07/16 09:47:33;;;;;;;5.68;2.25;;;;;;;;;;5081508;28;20020;-69
2022/07/16 09:50:01;;;;;;;4.63;2.20;;;;;;;;;;5082426;28;20439;-69
2022/07/16 09:52:30;;;;;;;6.70;2.45;;;;;;;;;;5085088;28;20028;-69
2022/07/16 09:54:57;;;;;;;5.03;2.10;;;;;;;;;;5086926;28;20084;-69
2022/07/16 09:57:25;;;;;;;7.50;2.28;;;;;;;;;;5083018;28;20028;-69
2022/07/16 09:59:52;;;;;;;9.52;2.97;;;;;;;;;;5069256;28;20036;-69
2022/07/16 10:02:18;;;;;;;8.48;2.35;;;;;;;;;;5086104;28;20409;-68
2022/07/16 10:04:44;;;;;;;5.38;2.22;;;;;;;;;;5087877;28;20039;-69
2022/07/16 10:07:10;;;;;;;4.40;2.40;;;;;;;;;;5079497;28;20775;-69
2022/07/16 10:09:37;;;;;;;5.97;2.33;;;;;;;;;;5086641;28;20550;-69
2022/07/16 10:12:06;;;;;;;6.22;2.38;;;;;;;;;;5088348;28;20039;-69
2022/07/16 10:14:36;;;;;;;5.22;2.33;;;;;;;;;;5084357;28;20043;-69
2022/07/16 10:17:11;;;;;;;6.57;2.42;;;;;;;;;;5095795;28;20594;-69
2022/07/16 10:19:37;;;;;;;8.02;2.58;;;;;;;;;;5092209;28;20816;-69
2022/07/16 10:22:18;;;;;;;6.18;2.53;;;;;;;;;;5089456;28;20111;-69
2022/07/16 10:24:45;;;;;;;3.65;2.10;;;;;;;;;;5095486;28;20078;-69
2022/07/16 10:27:18;;;;;;;5.40;2.10;;;;;;;;;;5088288;28;20547;-69
2022/07/16 10:29:44;;;;;;;11.93;2.70;;;;;;;;;;5087853;28;20050;-69
2022/07/16 10:32:30;;;;;;;7.60;2.17;;;;;;;;;;5086315;28;20028;-69
2022/07/16 10:35:00;;;;;;;7.50;2.60;;;;;;;;;;5088023;28;20036;-69
2022/07/16 10:37:27;;;;;;;6.22;2.67;;;;;;;;;;5086999;28;20036;-69
2022/07/16 10:40:03;;;;;;;5.68;2.60;;;;;;;;;;5091713;28;20073;-69
2022/07/16 10:42:30;;;;;;;7.38;2.40;;;;;;;;;;5088202;28;20073;-69
2022/07/16 10:44:56;;;;;;;10.07;2.38;;;;;;;;;;5094045;28;20031;-69
2022/07/16 10:47:41;;;;;;;9.23;2.50;;;;;;;;;;5089187;28;20024;-69
2022/07/16 10:50:12;;;;;;;5.10;2.38;;;;;;;;;;5091484;28;20020;-69
2022/07/16 10:52:38;;;;;;;;;;;;;;;;;;5092782;28;20069;-69
2022/07/16 10:55:05;;;;;;;6.75;2.70;;;;;;;;;;5089826;28;19915;-69
2022/07/16 10:57:40;;;;;;;6.05;2.58;;;;;;;;;;5090533;28;20043;-69
2022/07/16 11:00:07;;;;;;;7.78;2.58;;;;;;;;;;5089531;28;20028;-69
2022/07/16 11:02:39;;;;;;;6.45;1.95;;;;;;;;;;5088398;28;20040;-69
2022/07/16 11:05:06;;;;;;;4.43;1.90;;;;;;;;;;5090618;28;20070;-69
2022/07/16 11:07:36;;;;;;;5.47;2.40;;;;;;;;;;5071089;28;20032;-69
2022/07/16 11:10:02;;;;;;;6.32;2.35;;;;;;;;;;5084110;28;20158;-69
2022/07/16 11:12:31;;;;;;;6.18;2.28;;;;;;;;;;5083021;28;20037;-69
2022/07/16 11:14:58;;;;;;;5.85;2.45;;;;;;;;;;5085472;28;20042;-69
2022/07/16 11:17:29;;;;;;;5.40;1.83;;;;;;;;;;5081167;28;20040;-69
2022/07/16 11:19:56;;;;;;;5.07;2.20;;;;;;;;;;5087453;28;20118;-69
2022/07/16 11:22:27;;;;;;;7.68;2.67;;;;;;;;;;5087236;28;20036;-69
2022/07/16 11:24:54;;;;;;;6.15;2.22;;;;;;;;;;5081609;28;20025;-69
2022/07/16 11:27:29;;;;;;;6.88;2.28;;;;;;;;;;5086507;28;20363;-69
2022/07/16 11:29:56;;;;;;;5.90;1.95;;;;;;;;;;5080870;28;20041;-69
2022/07/16 11:32:22;;;;;;;7.95;2.33;;;;;;;;;;5083993;28;20060;-69
2022/07/16 11:34:48;;;;;;;8.05;2.60;;;;;;;;;;5077864;28;20043;-69
2022/07/16 11:37:15;;;;;;;8.13;2.40;;;;;;;;;;5090751;28;20031;-70
2022/07/16 11:39:41;;;;;;;11.30;2.15;;;;;;;;;;5087501;28;20055;-69
2022/07/16 11:42:07;;;;;;;4.78;2.10;;;;;;;;;;5087873;28;20035;-69
2022/07/16 11:44:34;;;;;;;5.20;2.30;;;;;;;;;;5086721;28;20593;-69
2022/07/16 11:47:10;;;;;;;7.75;2.60;;;;;;;;;;5082873;28;20051;-69
2022/07/16 11:49:37;;;;;;;7.82;1.90;;;;;;;;;;5083459;28;20055;-69
2022/07/16 11:52:05;;;;;;;4.88;1.90;;;;;;;;;;5082299;28;20054;-69
2022/07/16 11:54:35;;;;;;;8.60;2.50;;;;;;;;;;5068308;28;20493;-69
2022/07/16 11:57:02;;;;;;;8.23;2.17;;;;;;;;;;5085025;28;20030;-69
2022/07/16 11:59:29;;;;;;;6.63;2.28;;;;;;;;;;5083741;28;20621;-69
2022/07/16 12:02:06;;;;;;;5.53;1.58;;;;;;;;;;5084616;28;20126;-69
2022/07/16 12:04:32;;;;;;;6.32;1.92;;;;;;;;;;5086675;28;20036;-69
2022/07/16 12:06:58;;;;;;;5.95;1.80;;;;;;;;;;5084471;28;20020;-69
2022/07/16 12:09:31;;;;;;;4.95;1.80;;;;;;;;;;5083412;28;20135;-69
2022/07/16 12:12:01;;;;;;;7.72;1.70;;;;;;;;;;5086050;28;20034;-69
2022/07/16 12:14:43;;;;;;;3.72;1.77;;;;;;;;;;5084966;28;20542;-69
2022/07/16 12:17:22;;;;;;;6.78;1.85;;;;;;;;;;5081635;28;20028;-69
2022/07/16 12:20:06;;;;;;;5.90;1.92;;;;;;;;;;5081184;28;20036;-69
2022/07/16 12:22:45;;;;;;;6.45;1.80;;;;;;;;;;5068861;28;20786;-69
2022/07/16 12:25:22;;;;;;;7.10;2.30;;;;;;;;;;5077134;28;20043;-70
2022/07/16 12:27:49;;;;;;;6.47;1.60;;;;;;;;;;5065700;28;20060;-69
2022/07/16 12:30:16;;;;;;;7.78;1.80;;;;;;;;;;5085217;28;20046;-69
2022/07/16 12:32:51;;;;;;;6.88;1.42;;;;;;;;;;5087944;28;20410;-69
2022/07/16 12:35:36;;;;;;;6.72;1.85;;;;;;;;;;5085247;28;20032;-69
2022/07/16 12:38:03;;;;;;;5.13;1.83;;;;;;;;;;5087298;28;20665;-69
2022/07/16 12:40:29;;;;;;;4.68;1.63;;;;;;;;;;5084439;28;20036;-67
2022/07/16 12:42:55;;;;;;;3.35;1.60;;;;;;;;;;5073949;28;20074;-69
2022/07/16 12:45:21;;;;;;;5.75;1.75;;;;;;;;;;5078629;28;20947;-69
2022/07/16 12:47:47;;;;;;;5.95;1.50;;;;;;;;;;5082204;28;20032;-69
2022/07/16 12:50:14;;;;;;;3.17;1.65;;;;;;;;;;5083022;28;20035;-69
2022/07/16 12:52:41;;;;;;;4.60;1.70;;;;;;;;;;5084361;28;20036;-69
2022/07/16 13:00:36;;;;;;;5.35;1.38;;;;;;;;;;5077034;28;20059;-69
2022/07/16 13:03:03;;;;;;;6.50;1.60;;;;;;;;;;5086749;28;20040;-69
2022/07/16 13:05:29;;;;;;;3.97;1.65;;;;;;;;;;5085723;28;20063;-70
2022/07/16 13:07:55;;;;;;;4.47;1.70;;;;;;;;;;5085603;28;20066;-69
2022/07/16 13:10:21;;;;;;;3.70;1.45;;;;;;;;;;5082153;28;20033;-69
2022/07/16 13:12:47;;;;;;;4.30;1.20;;;;;;;;;;5084593;28;20044;-69
2022/07/16 13:15:16;;;;;;;5.00;1.20;;;;;;;;;;5085782;28;20043;-69
2022/07/16 13:17:43;;;;;;;10.25;1.38;;;;;;;;;;5088819;28;20123;-69
2022/07/16 13:20:09;;;;;;;9.63;1.67;;;;;;;;;;5085069;28;20059;-69
2022/07/16 13:22:35;;;;;;;6.63;1.70;;;;;;;;;;5084526;28;20047;-69
2022/07/16 13:25:01;;;;;;;6.65;1.15;;;;;;;;;;5079867;28;20024;-69
2022/07/16 13:27:27;;;;;;;4.63;1.20;;;;;;;;;;5084946;28;20039;-69
2022/07/16 13:29:53;;;;;;;5.72;1.38;;;;;;;;;;5083088;28;20117;-69
2022/07/16 13:32:19;;;;;;;8.05;1.50;;;;;;;;;;5067646;28;20036;-69
2022/07/16 13:34:45;;;;;;;9.32;1.20;;;;;;;;;;5084880;28;20082;-69
2022/07/16 13:37:12;;;;;;;35.33;3.25;;;;;;;;;;5082373;28;20071;-69
2022/07/16 13:39:38;;;;;;;49.97;4.20;;;;;;;;;;5082234;28;20107;-69
2022/07/16 13:42:04;;;;;;;13.63;1.70;;;;;;;;;;5082659;28;20060;-69
2022/07/16 13:44:30;;;;;;;3.92;1.50;;;;;;;;;;5086322;28;20070;-69
2022/07/16 13:46:57;;;;;;;3.35;1.20;;;;;;;;;;5084577;28;20028;-69
2022/07/16 13:49:24;;;;;;;3.15;1.20;;;;;;;;;;5085484;28;20036;-69
2022/07/16 13:51:50;;;;;;;3.33;1.40;;;;;;;;;;5087177;28;20028;-69
2022/07/16 13:54:16;;;;;;;2.40;1.20;;;;;;;;;;5084932;28;20046;-69
2022/07/16 13:56:42;;;;;;;5.65;1.27;;;;;;;;;;5069682;28;20138;-69
2022/07/16 13:59:08;;;;;;;4.10;1.30;;;;;;;;;;5084650;28;20447;-69
2022/07/16 14:01:34;;;;;;;6.70;1.30;;;;;;;;;;5085750;28;20053;-69
2022/07/16 14:04:01;;;;;;;4.93;1.20;;;;;;;;;;5088155;28;20020;-69
2022/07/16 14:06:28;;;;;;;5.40;1.30;;;;;;;;;;5086405;28;20496;-69
2022/07/16 14:08:54;;;;;;;3.63;1.50;;;;;;;;;;5082333;28;20119;-69
2022/07/16 14:11:20;;;;;;;4.03;1.40;;;;;;;;;;5066063;28;20371;-69
2022/07/16 14:13:47;;;;;;;4.28;1.50;;;;;;;;;;5086767;28;20105;-69
2022/07/16 14:16:13;;;;;;;5.63;1.38;;;;;;;;;;5088484;28;20043;-69
2022/07/16 14:18:39;;;;;;;4.45;1.40;;;;;;;;;;5087842;28;20138;-69
2022/07/16 14:21:06;;;;;;;3.78;1.20;;;;;;;;;;5091959;28;20189;-70
2022/07/16 14:23:32;;;;;;;5.60;1.55;;;;;;;;;;5089216;28;20032;-69
2022/07/16 14:25:58;;;;;;;4.28;1.30;;;;;;;;;;5078640;28;20039;-69
2022/07/16 14:28:24;;;;;;;5.60;1.30;;;;;;;;;;5085905;28;20794;-69
